sensor_id;sensor_type;location;lat;lon;timestamp;temperature;humidity
6581;DHT22;3324;50.796;7.228;2024-01-30T00:01:50;8.60;99.90
6581;DHT22;3324;50.796;7.228;2024-01-30T00:04:15;8.60;99.90
6581;DHT22;3324;50.796;7.228;2024-01-30T00:06:42;8.60;99.90
6581;DHT22;3324;50.796;7.228;2024-01-30T00:09:07;8.60;99.90
6581;DHT22;3324;50.796;7.228;2024-01-30T00:11:34;8.60;99.90
6581;DHT22;3324;50.796;7.228;2024-01-30T00:13:59;8.60;99.90
6581;DHT22;3324;50.796;7.228;2024-01-30T00:16:25;8.50;99.90
6581;DHT22;3324;50.796;7.228;2024-01-30T00:18:51;8.60;99.90
6581;DHT22;3324;50.796;7.228;2024-01-30T00:21:17;8.50;99.90
6581;DHT22;3324;50.796;7.228;2024-01-30T00:23:43;8.50;99.90
6581;DHT22;3324;50.796;7.228;2024-01-30T00:26:08;8.50;99.90
6581;DHT22;3324;50.796;7.228;2024-01-30T00:28:34;8.50;99.90
6581;DHT22;3324;50.796;7.228;2024-01-30T00:30:59;8.50;99.90
6581;DHT22;3324;50.796;7.228;2024-01-30T00:33:24;8.50;99.90
6581;DHT22;3324;50.796;7.228;2024-01-30T00:35:50;8.50;99.90
6581;DHT22;3324;50.796;7.228;2024-01-30T00:38:15;8.50;99.90
6581;DHT22;3324;50.796;7.228;2024-01-30T00:40:41;8.50;99.90
6581;DHT22;3324;50.796;7.228;2024-01-30T00:43:06;8.40;99.90
6581;DHT22;3324;50.796;7.228;2024-01-30T00:45:32;8.40;99.90
6581;DHT22;3324;50.796;7.228;2024-01-30T00:47:57;8.40;99.90
6581;DHT22;3324;50.796;7.228;2024-01-30T00:50:23;8.40;99.90
6581;DHT22;3324;50.796;7.228;2024-01-30T00:52:48;8.50;99.90
6581;DHT22;3324;50.796;7.228;2024-01-30T00:55:14;8.40;99.90
6581;DHT22;3324;50.796;7.228;2024-01-30T00:57:39;8.40;99.90
6581;DHT22;3324;50.796;7.228;2024-01-30T01:00:05;8.30;99.90
6581;DHT22;3324;50.796;7.228;2024-01-30T01:02:34;8.30;99.90
6581;DHT22;3324;50.796;7.228;2024-01-30T01:04:59;8.30;99.90
6581;DHT22;3324;50.796;7.228;2024-01-30T01:07:25;8.20;99.90
6581;DHT22;3324;50.796;7.228;2024-01-30T01:09:50;8.30;99.90
6581;DHT22;3324;50.796;7.228;2024-01-30T01:12:17;8.30;99.90
6581;DHT22;3324;50.796;7.228;2024-01-30T01:14:42;8.30;99.90
6581;DHT22;3324;50.796;7.228;2024-01-30T01:17:08;8.30;99.90
6581;DHT22;3324;50.796;7.228;2024-01-30T01:19:33;8.20;99.90
6581;DHT22;3324;50.796;7.228;2024-01-30T01:21:59;8.20;99.90
6581;DHT22;3324;50.796;7.228;2024-01-30T01:24:24;8.20;99.90
6581;DHT22;3324;50.796;7.228;2024-01-30T01:26:50;8.20;99.90
6581;DHT22;3324;50.796;7.228;2024-01-30T01:29:15;8.20;99.90
6581;DHT22;3324;50.796;7.228;2024-01-30T01:31:41;8.20;99.90
6581;DHT22;3324;50.796;7.228;2024-01-30T01:34:10;8.10;99.90
6581;DHT22;3324;50.796;7.228;2024-01-30T01:36:35;8.10;99.90
6581;DHT22;3324;50.796;7.228;2024-01-30T01:39:01;8.10;99.90
6581;DHT22;3324;50.796;7.228;2024-01-30T01:41:29;8.10;99.90
6581;DHT22;3324;50.796;7.228;2024-01-30T01:43:55;8.10;99.90
6581;DHT22;3324;50.796;7.228;2024-01-30T01:46:20;8.10;99.90
6581;DHT22;3324;50.796;7.228;2024-01-30T01:48:46;8.00;99.90
6581;DHT22;3324;50.796;7.228;2024-01-30T01:51:12;8.10;99.90
6581;DHT22;3324;50.796;7.228;2024-01-30T01:53:38;8.10;99.90
6581;DHT22;3324;50.796;7.228;2024-01-30T01:56:03;8.10;99.90
6581;DHT22;3324;50.796;7.228;2024-01-30T01:58:30;8.10;99.90
6581;DHT22;3324;50.796;7.228;2024-01-30T02:00:56;8.10;99.90
6581;DHT22;3324;50.796;7.228;2024-01-30T02:03:21;8.00;99.90
6581;DHT22;3324;50.796;7.228;2024-01-30T02:05:47;8.10;99.90
6581;DHT22;3324;50.796;7.228;2024-01-30T02:08:13;8.00;99.90
6581;DHT22;3324;50.796;7.228;2024-01-30T02:10:38;8.00;99.90
6581;DHT22;3324;50.796;7.228;2024-01-30T02:13:04;8.00;99.90
6581;DHT22;3324;50.796;7.228;2024-01-30T02:15:30;8.00;99.90
6581;DHT22;3324;50.796;7.228;2024-01-30T02:17:55;8.00;99.90
6581;DHT22;3324;50.796;7.228;2024-01-30T02:20:21;8.10;99.90
6581;DHT22;3324;50.796;7.228;2024-01-30T02:22:47;8.10;99.90
6581;DHT22;3324;50.796;7.228;2024-01-30T02:25:13;8.10;99.90
6581;DHT22;3324;50.796;7.228;2024-01-30T02:27:39;8.10;99.90
6581;DHT22;3324;50.796;7.228;2024-01-30T02:30:04;8.10;99.90
6581;DHT22;3324;50.796;7.228;2024-01-30T02:32:30;8.20;99.90
6581;DHT22;3324;50.796;7.228;2024-01-30T02:34:55;8.10;99.90
6581;DHT22;3324;50.796;7.228;2024-01-30T02:37:21;8.10;99.90
6581;DHT22;3324;50.796;7.228;2024-01-30T02:39:46;8.10;99.90
6581;DHT22;3324;50.796;7.228;2024-01-30T02:42:12;8.10;99.90
6581;DHT22;3324;50.796;7.228;2024-01-30T02:44:37;8.10;99.90
6581;DHT22;3324;50.796;7.228;2024-01-30T02:47:03;8.10;99.90
6581;DHT22;3324;50.796;7.228;2024-01-30T02:49:28;8.10;99.90
6581;DHT22;3324;50.796;7.228;2024-01-30T02:51:54;8.10;99.90
6581;DHT22;3324;50.796;7.228;2024-01-30T02:54:19;8.10;99.90
6581;DHT22;3324;50.796;7.228;2024-01-30T02:56:45;8.10;99.90
6581;DHT22;3324;50.796;7.228;2024-01-30T02:59:10;8.10;99.90
6581;DHT22;3324;50.796;7.228;2024-01-30T03:01:42;8.10;99.90
6581;DHT22;3324;50.796;7.228;2024-01-30T03:04:08;8.00;99.90
6581;DHT22;3324;50.796;7.228;2024-01-30T03:06:33;8.10;99.90
6581;DHT22;3324;50.796;7.228;2024-01-30T03:08:59;8.00;99.90
6581;DHT22;3324;50.796;7.228;2024-01-30T03:11:24;8.00;99.90
6581;DHT22;3324;50.796;7.228;2024-01-30T03:13:50;8.00;99.90
6581;DHT22;3324;50.796;7.228;2024-01-30T03:16:15;8.00;99.90
6581;DHT22;3324;50.796;7.228;2024-01-30T03:18:41;8.00;99.90
6581;DHT22;3324;50.796;7.228;2024-01-30T03:21:06;8.00;99.90
6581;DHT22;3324;50.796;7.228;2024-01-30T03:23:32;8.00;99.90
6581;DHT22;3324;50.796;7.228;2024-01-30T03:26:04;8.00;99.90
6581;DHT22;3324;50.796;7.228;2024-01-30T03:28:34;7.90;99.90
6581;DHT22;3324;50.796;7.228;2024-01-30T03:31:02;7.90;99.90
6581;DHT22;3324;50.796;7.228;2024-01-30T03:33:27;7.90;99.90
6581;DHT22;3324;50.796;7.228;2024-01-30T03:35:53;7.90;99.90
6581;DHT22;3324;50.796;7.228;2024-01-30T03:38:19;7.90;99.90
6581;DHT22;3324;50.796;7.228;2024-01-30T03:40:44;7.90;99.90
6581;DHT22;3324;50.796;7.228;2024-01-30T03:43:09;7.90;99.90
6581;DHT22;3324;50.796;7.228;2024-01-30T03:45:35;7.90;99.90
6581;DHT22;3324;50.796;7.228;2024-01-30T03:48:01;7.90;99.90
6581;DHT22;3324;50.796;7.228;2024-01-30T03:50:26;7.90;99.90
6581;DHT22;3324;50.796;7.228;2024-01-30T03:52:53;7.90;99.90
6581;DHT22;3324;50.796;7.228;2024-01-30T03:55:18;7.90;99.90
6581;DHT22;3324;50.796;7.228;2024-01-30T03:57:44;7.80;99.90
6581;DHT22;3324;50.796;7.228;2024-01-30T04:00:09;7.80;99.90
6581;DHT22;3324;50.796;7.228;2024-01-30T04:02:35;7.80;99.90
6581;DHT22;3324;50.796;7.228;2024-01-30T04:05:00;7.80;99.90
6581;DHT22;3324;50.796;7.228;2024-01-30T04:07:26;7.80;99.90
6581;DHT22;3324;50.796;7.228;2024-01-30T04:09:51;7.70;99.90
6581;DHT22;3324;50.796;7.228;2024-01-30T04:12:17;7.70;99.90
6581;DHT22;3324;50.796;7.228;2024-01-30T04:14:42;7.70;99.90
6581;DHT22;3324;50.796;7.228;2024-01-30T04:17:09;7.70;99.90
6581;DHT22;3324;50.796;7.228;2024-01-30T04:19:37;7.70;99.90
6581;DHT22;3324;50.796;7.228;2024-01-30T04:22:02;7.70;99.90
6581;DHT22;3324;50.796;7.228;2024-01-30T04:24:28;7.60;99.90
6581;DHT22;3324;50.796;7.228;2024-01-30T04:26:53;7.60;99.90
6581;DHT22;3324;50.796;7.228;2024-01-30T04:29:19;7.60;99.90
6581;DHT22;3324;50.796;7.228;2024-01-30T04:31:45;7.70;99.90
6581;DHT22;3324;50.796;7.228;2024-01-30T04:34:10;7.60;99.90
6581;DHT22;3324;50.796;7.228;2024-01-30T04:36:36;7.60;99.90
6581;DHT22;3324;50.796;7.228;2024-01-30T04:39:01;7.60;99.90
6581;DHT22;3324;50.796;7.228;2024-01-30T04:41:27;7.60;99.90
6581;DHT22;3324;50.796;7.228;2024-01-30T04:43:56;7.60;99.90
6581;DHT22;3324;50.796;7.228;2024-01-30T04:46:22;7.50;99.90
6581;DHT22;3324;50.796;7.228;2024-01-30T04:48:47;7.60;99.90
6581;DHT22;3324;50.796;7.228;2024-01-30T04:51:13;7.50;99.90
6581;DHT22;3324;50.796;7.228;2024-01-30T04:53:38;7.50;99.90
6581;DHT22;3324;50.796;7.228;2024-01-30T04:56:05;7.60;99.90
6581;DHT22;3324;50.796;7.228;2024-01-30T04:58:30;7.60;99.90
6581;DHT22;3324;50.796;7.228;2024-01-30T05:00:56;7.60;99.90
6581;DHT22;3324;50.796;7.228;2024-01-30T05:03:22;7.60;99.90
6581;DHT22;3324;50.796;7.228;2024-01-30T05:05:48;7.60;99.90
6581;DHT22;3324;50.796;7.228;2024-01-30T05:08:14;7.60;99.90
6581;DHT22;3324;50.796;7.228;2024-01-30T05:10:40;7.60;99.90
6581;DHT22;3324;50.796;7.228;2024-01-30T05:13:05;7.60;99.90
6581;DHT22;3324;50.796;7.228;2024-01-30T05:15:31;7.60;99.90
6581;DHT22;3324;50.796;7.228;2024-01-30T05:17:56;7.60;99.90
6581;DHT22;3324;50.796;7.228;2024-01-30T05:20:22;7.60;99.90
6581;DHT22;3324;50.796;7.228;2024-01-30T05:22:47;7.60;99.90
6581;DHT22;3324;50.796;7.228;2024-01-30T05:25:13;7.70;99.90
6581;DHT22;3324;50.796;7.228;2024-01-30T05:27:38;7.60;99.90
6581;DHT22;3324;50.796;7.228;2024-01-30T05:30:05;7.60;99.90
6581;DHT22;3324;50.796;7.228;2024-01-30T05:32:31;7.60;99.90
6581;DHT22;3324;50.796;7.228;2024-01-30T05:34:57;7.60;99.90
6581;DHT22;3324;50.796;7.228;2024-01-30T05:37:22;7.70;99.90
6581;DHT22;3324;50.796;7.228;2024-01-30T05:39:48;7.60;99.90
6581;DHT22;3324;50.796;7.228;2024-01-30T05:42:13;7.60;99.90
6581;DHT22;3324;50.796;7.228;2024-01-30T05:44:40;7.60;99.90
6581;DHT22;3324;50.796;7.228;2024-01-30T05:47:05;7.60;99.90
6581;DHT22;3324;50.796;7.228;2024-01-30T05:49:31;7.60;99.90
6581;DHT22;3324;50.796;7.228;2024-01-30T05:51:57;7.60;99.90
6581;DHT22;3324;50.796;7.228;2024-01-30T05:54:22;7.60;99.90
6581;DHT22;3324;50.796;7.228;2024-01-30T05:56:48;7.50;99.90
6581;DHT22;3324;50.796;7.228;2024-01-30T05:59:13;7.40;99.90
6581;DHT22;3324;50.796;7.228;2024-01-30T06:01:44;7.40;99.90
6581;DHT22;3324;50.796;7.228;2024-01-30T06:04:10;7.50;99.90
6581;DHT22;3324;50.796;7.228;2024-01-30T06:06:35;7.40;99.90
6581;DHT22;3324;50.796;7.228;2024-01-30T06:09:01;7.40;99.90
6581;DHT22;3324;50.796;7.228;2024-01-30T06:11:26;7.40;99.90
6581;DHT22;3324;50.796;7.228;2024-01-30T06:13:52;7.40;99.90
6581;DHT22;3324;50.796;7.228;2024-01-30T06:16:17;7.40;99.90
6581;DHT22;3324;50.796;7.228;2024-01-30T06:18:45;7.30;99.90
6581;DHT22;3324;50.796;7.228;2024-01-30T06:21:10;7.40;99.90
6581;DHT22;3324;50.796;7.228;2024-01-30T06:23:35;7.40;99.90
6581;DHT22;3324;50.796;7.228;2024-01-30T06:26:01;7.40;99.90
6581;DHT22;3324;50.796;7.228;2024-01-30T06:28:26;7.30;99.90
6581;DHT22;3324;50.796;7.228;2024-01-30T06:30:52;7.30;99.90
6581;DHT22;3324;50.796;7.228;2024-01-30T06:33:17;7.30;99.90
6581;DHT22;3324;50.796;7.228;2024-01-30T06:35:43;7.40;99.90
6581;DHT22;3324;50.796;7.228;2024-01-30T06:38:11;7.30;99.90
6581;DHT22;3324;50.796;7.228;2024-01-30T06:40:36;7.30;99.90
6581;DHT22;3324;50.796;7.228;2024-01-30T06:43:03;7.40;99.90
6581;DHT22;3324;50.796;7.228;2024-01-30T06:45:29;7.40;99.90
6581;DHT22;3324;50.796;7.228;2024-01-30T06:47:54;7.30;99.90
6581;DHT22;3324;50.796;7.228;2024-01-30T06:50:20;7.30;99.90
6581;DHT22;3324;50.796;7.228;2024-01-30T06:52:46;7.30;99.90
6581;DHT22;3324;50.796;7.228;2024-01-30T06:55:11;7.30;99.90
6581;DHT22;3324;50.796;7.228;2024-01-30T06:57:37;7.30;99.90
6581;DHT22;3324;50.796;7.228;2024-01-30T07:00:03;7.30;99.90
6581;DHT22;3324;50.796;7.228;2024-01-30T07:02:34;7.30;99.90
6581;DHT22;3324;50.796;7.228;2024-01-30T07:05:04;7.30;99.90
6581;DHT22;3324;50.796;7.228;2024-01-30T07:07:30;7.30;99.90
6581;DHT22;3324;50.796;7.228;2024-01-30T07:09:55;7.30;99.90
6581;DHT22;3324;50.796;7.228;2024-01-30T07:12:23;7.30;99.90
6581;DHT22;3324;50.796;7.228;2024-01-30T07:14:51;7.30;99.90
6581;DHT22;3324;50.796;7.228;2024-01-30T07:17:16;7.30;99.90
6581;DHT22;3324;50.796;7.228;2024-01-30T07:19:42;7.30;99.90
6581;DHT22;3324;50.796;7.228;2024-01-30T07:22:08;7.20;99.90
6581;DHT22;3324;50.796;7.228;2024-01-30T07:24:33;7.20;99.90
6581;DHT22;3324;50.796;7.228;2024-01-30T07:26:59;7.20;99.90
6581;DHT22;3324;50.796;7.228;2024-01-30T07:29:24;7.20;99.90
6581;DHT22;3324;50.796;7.228;2024-01-30T07:31:50;7.20;99.90
6581;DHT22;3324;50.796;7.228;2024-01-30T07:34:15;7.30;99.90
6581;DHT22;3324;50.796;7.228;2024-01-30T07:36:41;7.30;99.90
6581;DHT22;3324;50.796;7.228;2024-01-30T07:39:06;7.30;99.90
6581;DHT22;3324;50.796;7.228;2024-01-30T07:41:32;7.30;99.90
6581;DHT22;3324;50.796;7.228;2024-01-30T07:43:58;7.20;99.90
6581;DHT22;3324;50.796;7.228;2024-01-30T07:46:23;7.30;99.90
6581;DHT22;3324;50.796;7.228;2024-01-30T07:48:49;7.30;99.90
6581;DHT22;3324;50.796;7.228;2024-01-30T07:51:14;7.30;99.90
6581;DHT22;3324;50.796;7.228;2024-01-30T07:53:41;7.30;99.90
6581;DHT22;3324;50.796;7.228;2024-01-30T07:56:07;7.30;99.90
6581;DHT22;3324;50.796;7.228;2024-01-30T07:58:32;7.30;99.90
6581;DHT22;3324;50.796;7.228;2024-01-30T08:00:58;7.30;99.90
6581;DHT22;3324;50.796;7.228;2024-01-30T08:03:24;7.40;99.90
6581;DHT22;3324;50.796;7.228;2024-01-30T08:05:49;7.40;99.90
6581;DHT22;3324;50.796;7.228;2024-01-30T08:08:15;7.40;99.90
6581;DHT22;3324;50.796;7.228;2024-01-30T08:10:40;7.40;99.90
6581;DHT22;3324;50.796;7.228;2024-01-30T08:13:06;7.50;99.90
6581;DHT22;3324;50.796;7.228;2024-01-30T08:15:31;7.60;99.90
6581;DHT22;3324;50.796;7.228;2024-01-30T08:17:57;7.60;99.90
6581;DHT22;3324;50.796;7.228;2024-01-30T08:20:24;7.60;99.90
6581;DHT22;3324;50.796;7.228;2024-01-30T08:22:50;7.60;99.90
6581;DHT22;3324;50.796;7.228;2024-01-30T08:25:15;7.70;99.90
6581;DHT22;3324;50.796;7.228;2024-01-30T08:27:41;7.70;99.90
6581;DHT22;3324;50.796;7.228;2024-01-30T08:30:06;7.80;99.90
6581;DHT22;3324;50.796;7.228;2024-01-30T08:32:32;7.80;99.90
6581;DHT22;3324;50.796;7.228;2024-01-30T08:34:58;7.90;99.90
6581;DHT22;3324;50.796;7.228;2024-01-30T08:37:23;7.80;99.90
6581;DHT22;3324;50.796;7.228;2024-01-30T08:39:49;7.90;99.90
6581;DHT22;3324;50.796;7.228;2024-01-30T08:42:14;8.00;99.90
6581;DHT22;3324;50.796;7.228;2024-01-30T08:44:40;8.10;99.90
6581;DHT22;3324;50.796;7.228;2024-01-30T08:47:05;8.00;99.90
6581;DHT22;3324;50.796;7.228;2024-01-30T08:49:31;8.10;99.90
6581;DHT22;3324;50.796;7.228;2024-01-30T08:51:56;8.10;99.90
6581;DHT22;3324;50.796;7.228;2024-01-30T08:54:23;8.10;99.90
6581;DHT22;3324;50.796;7.228;2024-01-30T08:56:48;8.20;99.90
6581;DHT22;3324;50.796;7.228;2024-01-30T08:59:14;8.20;99.90
6581;DHT22;3324;50.796;7.228;2024-01-30T09:01:39;8.30;99.90
6581;DHT22;3324;50.796;7.228;2024-01-30T09:04:04;8.20;99.90
6581;DHT22;3324;50.796;7.228;2024-01-30T09:06:30;8.30;99.90
6581;DHT22;3324;50.796;7.228;2024-01-30T09:08:56;8.30;99.90
6581;DHT22;3324;50.796;7.228;2024-01-30T09:11:23;8.30;99.90
6581;DHT22;3324;50.796;7.228;2024-01-30T09:13:48;8.30;99.90
6581;DHT22;3324;50.796;7.228;2024-01-30T09:16:14;8.30;99.90
6581;DHT22;3324;50.796;7.228;2024-01-30T09:18:41;8.40;99.90
6581;DHT22;3324;50.796;7.228;2024-01-30T09:21:07;8.40;99.90
6581;DHT22;3324;50.796;7.228;2024-01-30T09:23:32;8.60;99.90
6581;DHT22;3324;50.796;7.228;2024-01-30T09:25:58;8.60;99.90
6581;DHT22;3324;50.796;7.228;2024-01-30T09:28:24;8.60;99.90
6581;DHT22;3324;50.796;7.228;2024-01-30T09:30:49;8.60;99.90
6581;DHT22;3324;50.796;7.228;2024-01-30T09:33:15;8.60;99.90
6581;DHT22;3324;50.796;7.228;2024-01-30T09:35:40;8.70;99.90
6581;DHT22;3324;50.796;7.228;2024-01-30T09:38:06;8.70;99.90
6581;DHT22;3324;50.796;7.228;2024-01-30T09:40:31;8.70;99.90
6581;DHT22;3324;50.796;7.228;2024-01-30T09:42:57;8.80;99.90
6581;DHT22;3324;50.796;7.228;2024-01-30T09:45:25;8.80;99.90
6581;DHT22;3324;50.796;7.228;2024-01-30T09:47:51;8.90;99.90
6581;DHT22;3324;50.796;7.228;2024-01-30T09:50:16;9.00;99.90
6581;DHT22;3324;50.796;7.228;2024-01-30T09:52:42;9.00;99.90
6581;DHT22;3324;50.796;7.228;2024-01-30T09:55:08;9.20;99.90
6581;DHT22;3324;50.796;7.228;2024-01-30T09:57:34;9.20;99.90
6581;DHT22;3324;50.796;7.228;2024-01-30T10:00:00;9.30;99.90
6581;DHT22;3324;50.796;7.228;2024-01-30T10:02:25;9.30;99.90
6581;DHT22;3324;50.796;7.228;2024-01-30T10:04:51;9.40;99.90
6581;DHT22;3324;50.796;7.228;2024-01-30T10:07:17;9.40;99.90
6581;DHT22;3324;50.796;7.228;2024-01-30T10:09:43;9.50;99.90
6581;DHT22;3324;50.796;7.228;2024-01-30T10:12:09;9.60;99.90
6581;DHT22;3324;50.796;7.228;2024-01-30T10:14:38;9.60;99.90
6581;DHT22;3324;50.796;7.228;2024-01-30T10:17:03;9.70;99.90
6581;DHT22;3324;50.796;7.228;2024-01-30T10:19:29;9.70;99.90
6581;DHT22;3324;50.796;7.228;2024-01-30T10:21:54;9.70;99.90
6581;DHT22;3324;50.796;7.228;2024-01-30T10:24:23;9.80;99.90
6581;DHT22;3324;50.796;7.228;2024-01-30T10:26:49;9.80;99.90
6581;DHT22;3324;50.796;7.228;2024-01-30T10:29:14;9.90;99.90
6581;DHT22;3324;50.796;7.228;2024-01-30T10:31:40;10.00;99.90
6581;DHT22;3324;50.796;7.228;2024-01-30T10:34:05;10.00;99.90
6581;DHT22;3324;50.796;7.228;2024-01-30T10:36:31;10.10;99.90
6581;DHT22;3324;50.796;7.228;2024-01-30T10:39:02;10.10;99.90
6581;DHT22;3324;50.796;7.228;2024-01-30T10:41:27;10.10;99.90
6581;DHT22;3324;50.796;7.228;2024-01-30T10:44:04;10.10;99.90
6581;DHT22;3324;50.796;7.228;2024-01-30T10:46:33;10.10;99.90
6581;DHT22;3324;50.796;7.228;2024-01-30T10:49:00;10.10;99.90
6581;DHT22;3324;50.796;7.228;2024-01-30T10:51:26;10.10;99.90
6581;DHT22;3324;50.796;7.228;2024-01-30T10:53:51;10.10;99.90
6581;DHT22;3324;50.796;7.228;2024-01-30T10:56:19;10.20;99.90
6581;DHT22;3324;50.796;7.228;2024-01-30T10:58:45;10.20;99.90
6581;DHT22;3324;50.796;7.228;2024-01-30T11:01:12;10.20;99.90
6581;DHT22;3324;50.796;7.228;2024-01-30T11:03:38;10.30;99.90
6581;DHT22;3324;50.796;7.228;2024-01-30T11:06:03;10.30;99.90
6581;DHT22;3324;50.796;7.228;2024-01-30T11:08:31;10.30;99.90
6581;DHT22;3324;50.796;7.228;2024-01-30T11:10:57;10.40;99.90
6581;DHT22;3324;50.796;7.228;2024-01-30T11:13:29;10.40;99.90
6581;DHT22;3324;50.796;7.228;2024-01-30T11:15:55;10.40;99.90
6581;DHT22;3324;50.796;7.228;2024-01-30T11:18:28;10.40;99.90
6581;DHT22;3324;50.796;7.228;2024-01-30T11:20:57;10.30;99.90
6581;DHT22;3324;50.796;7.228;2024-01-30T11:23:23;10.40;99.90
6581;DHT22;3324;50.796;7.228;2024-01-30T11:25:49;10.40;99.90
6581;DHT22;3324;50.796;7.228;2024-01-30T11:28:15;10.40;99.90
6581;DHT22;3324;50.796;7.228;2024-01-30T11:30:41;10.40;99.90
6581;DHT22;3324;50.796;7.228;2024-01-30T11:33:08;10.50;99.90
6581;DHT22;3324;50.796;7.228;2024-01-30T11:35:52;10.40;99.90
6581;DHT22;3324;50.796;7.228;2024-01-30T11:38:18;10.50;99.90
6581;DHT22;3324;50.796;7.228;2024-01-30T11:40:43;10.60;99.90
6581;DHT22;3324;50.796;7.228;2024-01-30T11:43:08;10.50;99.90
6581;DHT22;3324;50.796;7.228;2024-01-30T11:45:35;10.50;99.90
6581;DHT22;3324;50.796;7.228;2024-01-30T11:48:01;10.60;99.90
6581;DHT22;3324;50.796;7.228;2024-01-30T11:50:29;10.60;99.90
6581;DHT22;3324;50.796;7.228;2024-01-30T11:52:54;10.60;99.90
6581;DHT22;3324;50.796;7.228;2024-01-30T11:55:20;10.60;99.90
6581;DHT22;3324;50.796;7.228;2024-01-30T11:57:45;10.60;99.90
6581;DHT22;3324;50.796;7.228;2024-01-30T12:00:14;10.70;99.90
6581;DHT22;3324;50.796;7.228;2024-01-30T12:02:40;10.70;99.90
6581;DHT22;3324;50.796;7.228;2024-01-30T12:05:06;10.80;99.90
6581;DHT22;3324;50.796;7.228;2024-01-30T12:07:32;10.80;99.90
6581;DHT22;3324;50.796;7.228;2024-01-30T12:09:58;10.90;99.90
6581;DHT22;3324;50.796;7.228;2024-01-30T12:12:26;11.10;99.90
6581;DHT22;3324;50.796;7.228;2024-01-30T12:14:52;11.30;99.90
6581;DHT22;3324;50.796;7.228;2024-01-30T12:17:30;11.40;99.90
6581;DHT22;3324;50.796;7.228;2024-01-30T12:20:02;11.40;99.90
6581;DHT22;3324;50.796;7.228;2024-01-30T12:22:28;11.50;99.90
6581;DHT22;3324;50.796;7.228;2024-01-30T12:24:53;11.60;99.90
6581;DHT22;3324;50.796;7.228;2024-01-30T12:27:19;11.60;99.90
6581;DHT22;3324;50.796;7.228;2024-01-30T12:29:44;11.70;99.90
6581;DHT22;3324;50.796;7.228;2024-01-30T12:32:14;11.70;99.90
6581;DHT22;3324;50.796;7.228;2024-01-30T12:34:41;11.90;99.90
6581;DHT22;3324;50.796;7.228;2024-01-30T12:37:06;12.00;99.90
6581;DHT22;3324;50.796;7.228;2024-01-30T12:39:34;12.10;99.90
6581;DHT22;3324;50.796;7.228;2024-01-30T12:42:00;12.20;99.90
6581;DHT22;3324;50.796;7.228;2024-01-30T12:44:25;12.20;99.90
6581;DHT22;3324;50.796;7.228;2024-01-30T12:46:51;12.10;99.90
6581;DHT22;3324;50.796;7.228;2024-01-30T12:49:16;12.10;99.90
6581;DHT22;3324;50.796;7.228;2024-01-30T12:51:42;12.10;99.90
6581;DHT22;3324;50.796;7.228;2024-01-30T12:54:08;12.10;99.90
6581;DHT22;3324;50.796;7.228;2024-01-30T12:56:33;12.20;99.90
6581;DHT22;3324;50.796;7.228;2024-01-30T12:58:59;12.10;99.90
6581;DHT22;3324;50.796;7.228;2024-01-30T13:01:24;12.10;99.90
6581;DHT22;3324;50.796;7.228;2024-01-30T13:03:50;12.10;99.90
6581;DHT22;3324;50.796;7.228;2024-01-30T13:06:15;12.10;99.90
6581;DHT22;3324;50.796;7.228;2024-01-30T13:08:41;12.10;99.90
6581;DHT22;3324;50.796;7.228;2024-01-30T13:11:06;12.20;99.90
6581;DHT22;3324;50.796;7.228;2024-01-30T13:13:32;12.30;99.90
6581;DHT22;3324;50.796;7.228;2024-01-30T13:15:58;12.30;99.90
6581;DHT22;3324;50.796;7.228;2024-01-30T13:18:23;12.40;99.90
6581;DHT22;3324;50.796;7.228;2024-01-30T13:20:49;12.40;99.90
6581;DHT22;3324;50.796;7.228;2024-01-30T13:23:14;12.30;99.90
6581;DHT22;3324;50.796;7.228;2024-01-30T13:25:40;12.30;99.90
6581;DHT22;3324;50.796;7.228;2024-01-30T13:28:05;12.20;99.90
6581;DHT22;3324;50.796;7.228;2024-01-30T13:30:31;12.30;99.90
6581;DHT22;3324;50.796;7.228;2024-01-30T13:32:56;12.30;99.90
6581;DHT22;3324;50.796;7.228;2024-01-30T13:35:22;12.20;99.90
6581;DHT22;3324;50.796;7.228;2024-01-30T13:37:47;12.30;99.90
6581;DHT22;3324;50.796;7.228;2024-01-30T13:40:13;12.30;99.90
6581;DHT22;3324;50.796;7.228;2024-01-30T13:42:39;12.30;99.90
6581;DHT22;3324;50.796;7.228;2024-01-30T13:45:05;12.30;99.90
6581;DHT22;3324;50.796;7.228;2024-01-30T13:47:31;12.40;99.90
6581;DHT22;3324;50.796;7.228;2024-01-30T13:49:56;12.30;99.90
6581;DHT22;3324;50.796;7.228;2024-01-30T13:52:22;12.30;99.90
6581;DHT22;3324;50.796;7.228;2024-01-30T13:54:48;12.30;99.90
6581;DHT22;3324;50.796;7.228;2024-01-30T13:57:13;12.30;99.90
6581;DHT22;3324;50.796;7.228;2024-01-30T13:59:39;12.30;99.90
6581;DHT22;3324;50.796;7.228;2024-01-30T14:02:04;12.30;99.90
6581;DHT22;3324;50.796;7.228;2024-01-30T14:04:30;12.40;99.90
6581;DHT22;3324;50.796;7.228;2024-01-30T14:06:56;12.40;99.90
6581;DHT22;3324;50.796;7.228;2024-01-30T14:09:21;12.30;99.90
6581;DHT22;3324;50.796;7.228;2024-01-30T14:11:47;12.20;99.90
6581;DHT22;3324;50.796;7.228;2024-01-30T14:14:12;12.20;99.90
6581;DHT22;3324;50.796;7.228;2024-01-30T14:16:38;12.20;99.90
6581;DHT22;3324;50.796;7.228;2024-01-30T14:19:04;12.10;99.90
6581;DHT22;3324;50.796;7.228;2024-01-30T14:21:29;12.00;99.90
6581;DHT22;3324;50.796;7.228;2024-01-30T14:23:54;12.00;99.90
6581;DHT22;3324;50.796;7.228;2024-01-30T14:26:20;12.00;99.90
6581;DHT22;3324;50.796;7.228;2024-01-30T14:28:46;12.00;99.90
6581;DHT22;3324;50.796;7.228;2024-01-30T14:31:12;12.00;99.90
6581;DHT22;3324;50.796;7.228;2024-01-30T14:33:37;12.10;99.90
6581;DHT22;3324;50.796;7.228;2024-01-30T14:36:03;12.00;99.90
6581;DHT22;3324;50.796;7.228;2024-01-30T14:38:29;12.00;99.90
6581;DHT22;3324;50.796;7.228;2024-01-30T14:40:54;12.10;99.90
6581;DHT22;3324;50.796;7.228;2024-01-30T14:43:19;12.00;99.90
6581;DHT22;3324;50.796;7.228;2024-01-30T14:45:45;12.00;99.90
6581;DHT22;3324;50.796;7.228;2024-01-30T14:48:14;12.00;99.90
6581;DHT22;3324;50.796;7.228;2024-01-30T14:50:39;11.90;99.90
6581;DHT22;3324;50.796;7.228;2024-01-30T14:53:05;11.90;99.90
6581;DHT22;3324;50.796;7.228;2024-01-30T14:55:30;11.90;99.90
6581;DHT22;3324;50.796;7.228;2024-01-30T14:57:56;11.90;99.90
6581;DHT22;3324;50.796;7.228;2024-01-30T15:00:21;11.90;99.90
6581;DHT22;3324;50.796;7.228;2024-01-30T15:02:47;11.90;99.90
6581;DHT22;3324;50.796;7.228;2024-01-30T15:05:12;11.90;99.90
6581;DHT22;3324;50.796;7.228;2024-01-30T15:07:38;12.00;99.90
6581;DHT22;3324;50.796;7.228;2024-01-30T15:10:04;11.90;99.90
6581;DHT22;3324;50.796;7.228;2024-01-30T15:12:30;11.90;99.90
6581;DHT22;3324;50.796;7.228;2024-01-30T15:14:55;12.00;99.90
6581;DHT22;3324;50.796;7.228;2024-01-30T15:17:21;11.90;99.90
6581;DHT22;3324;50.796;7.228;2024-01-30T15:19:46;11.90;99.90
6581;DHT22;3324;50.796;7.228;2024-01-30T15:22:12;11.80;99.90
6581;DHT22;3324;50.796;7.228;2024-01-30T15:24:38;11.80;99.90
6581;DHT22;3324;50.796;7.228;2024-01-30T15:27:04;11.80;99.90
6581;DHT22;3324;50.796;7.228;2024-01-30T15:29:30;11.80;99.90
6581;DHT22;3324;50.796;7.228;2024-01-30T15:31:55;11.80;99.90
6581;DHT22;3324;50.796;7.228;2024-01-30T15:34:21;11.80;99.90
6581;DHT22;3324;50.796;7.228;2024-01-30T15:36:46;11.80;99.90
6581;DHT22;3324;50.796;7.228;2024-01-30T15:39:12;11.70;99.90
6581;DHT22;3324;50.796;7.228;2024-01-30T15:41:40;11.70;99.90
6581;DHT22;3324;50.796;7.228;2024-01-30T15:44:06;11.80;99.90
6581;DHT22;3324;50.796;7.228;2024-01-30T15:46:31;11.70;99.90
6581;DHT22;3324;50.796;7.228;2024-01-30T15:48:57;11.70;99.90
6581;DHT22;3324;50.796;7.228;2024-01-30T15:51:22;11.70;99.90
6581;DHT22;3324;50.796;7.228;2024-01-30T15:53:49;11.60;99.90
6581;DHT22;3324;50.796;7.228;2024-01-30T15:56:15;11.70;99.90
6581;DHT22;3324;50.796;7.228;2024-01-30T15:58:41;11.70;99.90
6581;DHT22;3324;50.796;7.228;2024-01-30T16:01:06;11.70;99.90
6581;DHT22;3324;50.796;7.228;2024-01-30T16:03:32;11.70;99.90